createdAt,value
2022-11-22T00:00:05.928Z,1.50
2022-11-22T00:02:33.099Z,1.30
2022-11-22T00:05:00.255Z,1.20
2022-11-22T00:07:27.475Z,1.00
2022-11-22T00:09:54.485Z,0.90
2022-11-22T00:12:21.450Z,0.80
2022-11-22T00:14:51.429Z,0.90
2022-11-22T00:17:22.386Z,1.00
2022-11-22T00:19:49.369Z,1.30
2022-11-22T00:22:16.361Z,1.50
2022-11-22T00:24:46.391Z,1.30
2022-11-22T00:27:13.310Z,1.20
2022-11-22T00:29:40.191Z,1.10
2022-11-22T00:32:07.182Z,1.00
2022-11-22T00:34:34.330Z,0.90
2022-11-22T00:37:01.230Z,0.80
2022-11-22T00:39:28.570Z,0.80
2022-11-22T00:41:55.819Z,0.90
2022-11-22T00:44:22.818Z,0.80
2022-11-22T00:46:49.725Z,0.80
2022-11-22T00:49:16.732Z,0.90
2022-11-22T00:51:43.612Z,1.00
2022-11-22T00:54:10.525Z,1.20
2022-11-22T00:56:37.396Z,1.10
2022-11-22T00:59:04.510Z,1.30
2022-11-22T01:01:31.456Z,1.40
2022-11-22T01:03:58.397Z,1.50
2022-11-22T01:06:25.465Z,1.40
2022-11-22T01:08:52.365Z,1.50
2022-11-22T01:11:19.556Z,1.60
2022-11-22T01:13:46.553Z,1.50
2022-11-22T01:16:13.750Z,1.70
2022-11-22T01:18:40.993Z,2.00
2022-11-22T01:21:08.237Z,2.00
2022-11-22T01:23:35.427Z,2.00
2022-11-22T01:26:02.390Z,2.00
2022-11-22T01:28:29.539Z,2.00
2022-11-22T01:30:56.452Z,2.10
2022-11-22T01:33:23.698Z,2.10
2022-11-22T01:35:50.576Z,2.10
2022-11-22T01:38:17.492Z,2.20
2022-11-22T01:40:44.469Z,2.30
2022-11-22T01:43:29.827Z,2.60
2022-11-22T01:46:02.427Z,2.70
2022-11-22T01:48:44.669Z,2.30
2022-11-22T01:51:15.514Z,2.20
2022-11-22T01:53:42.796Z,2.00
2022-11-22T01:56:11.649Z,2.00
2022-11-22T01:58:40.300Z,1.90
2022-11-22T02:01:07.542Z,2.00
2022-11-22T02:03:37.498Z,2.00
2022-11-22T02:06:04.850Z,2.10
2022-11-22T02:08:36.866Z,2.30
2022-11-22T02:11:04.077Z,2.20
2022-11-22T02:13:32.803Z,2.00
2022-11-22T02:16:00.174Z,2.00
2022-11-22T02:18:27.463Z,2.20
2022-11-22T02:20:55.065Z,2.40
2022-11-22T02:23:40.748Z,2.50
2022-11-22T02:26:08.031Z,2.60
2022-11-22T02:28:36.315Z,2.50
2022-11-22T02:31:03.664Z,2.40
2022-11-22T02:33:30.580Z,2.30
2022-11-22T02:35:57.915Z,2.20
2022-11-22T02:38:32.958Z,2.30
2022-11-22T02:41:02.255Z,2.50
2022-11-22T02:43:31.351Z,2.60
2022-11-22T02:46:08.738Z,2.70
2022-11-22T02:48:40.912Z,2.70
2022-11-22T02:51:08.256Z,2.70
2022-11-22T02:53:35.216Z,2.70
2022-11-22T02:56:02.248Z,2.90
2022-11-22T02:58:32.810Z,2.90
2022-11-22T03:00:59.780Z,2.90
2022-11-22T03:03:26.795Z,2.80
2022-11-22T03:05:53.888Z,2.60
2022-11-22T03:08:20.769Z,2.60
2022-11-22T03:10:47.689Z,2.80
2022-11-22T03:13:14.646Z,3.00
2022-11-22T03:15:41.526Z,3.10
2022-11-22T03:18:08.447Z,3.20
2022-11-22T03:20:35.458Z,3.30
2022-11-22T03:23:02.470Z,3.40
2022-11-22T03:25:29.460Z,3.20
2022-11-22T03:27:56.412Z,3.10
2022-11-22T03:30:23.539Z,3.10
2022-11-22T03:32:50.483Z,3.10
2022-11-22T03:35:17.563Z,3.10
2022-11-22T03:37:44.521Z,3.00
2022-11-22T03:40:14.192Z,3.00
2022-11-22T03:42:41.113Z,2.90
2022-11-22T03:45:08.201Z,2.80
2022-11-22T03:47:35.067Z,2.80
2022-11-22T03:50:02.002Z,2.80
2022-11-22T03:52:29.660Z,2.70
2022-11-22T03:54:56.614Z,2.80
2022-11-22T03:57:23.521Z,2.90
2022-11-22T03:59:50.416Z,3.10
2022-11-22T04:02:17.307Z,3.30
2022-11-22T04:04:44.241Z,3.30
2022-11-22T04:07:11.252Z,3.40
2022-11-22T04:09:38.314Z,3.30
2022-11-22T04:12:05.328Z,3.40
2022-11-22T04:14:50.899Z,3.30
2022-11-22T04:17:37.816Z,3.40
2022-11-22T04:20:23.532Z,3.60
2022-11-22T04:23:00.782Z,3.80
2022-11-22T04:25:28.526Z,3.90
2022-11-22T04:27:56.861Z,4.00
2022-11-22T04:30:43.000Z,4.10
2022-11-22T04:33:10.446Z,4.10
2022-11-22T04:35:37.912Z,4.10
2022-11-22T04:38:04.907Z,4.20
2022-11-22T04:40:32.472Z,4.20
2022-11-22T04:43:18.647Z,4.10
2022-11-22T04:45:45.898Z,4.20
2022-11-22T04:48:13.215Z,4.20
2022-11-22T04:50:59.443Z,4.20
2022-11-22T04:53:26.621Z,4.30
2022-11-22T04:55:53.519Z,4.30
2022-11-22T04:58:20.616Z,4.30
2022-11-22T05:00:48.172Z,4.40
2022-11-22T05:03:15.159Z,4.50
2022-11-22T05:05:42.646Z,4.60
2022-11-22T05:08:10.106Z,4.60
2022-11-22T05:10:55.886Z,4.50
2022-11-22T05:13:24.338Z,4.30
2022-11-22T05:15:51.586Z,4.10
2022-11-22T05:18:19.275Z,3.90
2022-11-22T05:20:46.676Z,3.80
2022-11-22T05:23:32.291Z,3.50
2022-11-22T05:25:59.468Z,3.30
2022-11-22T05:28:30.025Z,3.00
2022-11-22T05:30:57.065Z,2.90
2022-11-22T05:33:23.981Z,2.90
2022-11-22T05:35:51.113Z,2.90
2022-11-22T05:38:21.284Z,3.10
2022-11-22T05:40:48.239Z,3.30
2022-11-22T05:43:15.119Z,3.50
2022-11-22T05:45:42.021Z,3.80
2022-11-22T05:48:08.902Z,4.00
2022-11-22T05:50:35.882Z,4.30
2022-11-22T05:53:03.702Z,4.50
2022-11-22T05:55:30.771Z,4.60
2022-11-22T05:58:01.447Z,4.80
2022-11-22T06:00:29.882Z,4.90
2022-11-22T06:03:00.773Z,4.90
2022-11-22T06:05:28.483Z,4.90
2022-11-22T06:08:02.828Z,4.90
2022-11-22T06:10:29.946Z,4.90
2022-11-22T06:12:56.838Z,5.00
2022-11-22T06:15:23.847Z,5.00
2022-11-22T06:17:50.859Z,4.90
2022-11-22T06:20:17.803Z,4.90
2022-11-22T06:22:44.798Z,4.90
2022-11-22T06:25:12.059Z,5.00
2022-11-22T06:27:38.971Z,5.10
2022-11-22T06:30:06.815Z,5.10
2022-11-22T06:32:34.359Z,5.20
2022-11-22T06:35:02.053Z,5.20
2022-11-22T06:37:29.505Z,5.30
2022-11-22T06:39:56.570Z,5.30
2022-11-22T06:42:23.553Z,5.30
2022-11-22T06:44:50.447Z,5.30
2022-11-22T06:47:17.931Z,5.20
2022-11-22T06:49:45.606Z,5.20
2022-11-22T06:52:12.522Z,5.20
2022-11-22T06:54:39.548Z,5.30
2022-11-22T06:57:06.512Z,5.30
2022-11-22T06:59:33.482Z,5.30
2022-11-22T07:02:06.115Z,5.30
2022-11-22T07:04:33.712Z,5.20
2022-11-22T07:07:00.614Z,5.20
2022-11-22T07:09:28.233Z,5.30
2022-11-22T07:11:55.373Z,5.30
2022-11-22T07:14:22.281Z,5.20
2022-11-22T07:16:49.497Z,5.30
2022-11-22T07:19:16.497Z,5.20
2022-11-22T07:21:43.447Z,5.20
2022-11-22T07:24:10.411Z,5.20
2022-11-22T07:26:37.353Z,5.20
2022-11-22T07:29:04.521Z,5.10
2022-11-22T07:31:31.413Z,5.20
2022-11-22T07:33:58.641Z,5.20
2022-11-22T07:36:25.814Z,5.20
2022-11-22T07:38:52.768Z,5.30
2022-11-22T07:41:19.968Z,5.30
2022-11-22T07:43:47.466Z,5.30
2022-11-22T07:46:17.475Z,5.30
2022-11-22T07:48:44.475Z,5.30
2022-11-22T07:51:11.603Z,5.30
2022-11-22T07:53:38.535Z,5.40
2022-11-22T07:56:06.167Z,5.40
2022-11-22T07:58:34.320Z,5.40
2022-11-22T08:01:08.233Z,5.30
2022-11-22T08:03:35.757Z,5.20
2022-11-22T08:06:03.804Z,5.10
2022-11-22T08:08:30.796Z,5.00
2022-11-22T08:10:57.894Z,4.90
2022-11-22T08:13:25.321Z,4.90
2022-11-22T08:15:54.567Z,4.90
2022-11-22T08:18:22.386Z,4.70
2022-11-22T08:20:49.442Z,4.70
2022-11-22T08:23:16.379Z,4.60
2022-11-22T08:25:43.265Z,4.70
2022-11-22T08:28:10.112Z,4.70
2022-11-22T08:30:37.056Z,4.70
2022-11-22T08:33:04.005Z,4.80
2022-11-22T08:35:30.944Z,4.80
2022-11-22T08:37:58.002Z,4.80
2022-11-22T08:40:25.048Z,4.80
2022-11-22T08:42:53.979Z,4.80
2022-11-22T08:45:20.964Z,4.70
2022-11-22T08:47:49.194Z,4.70
2022-11-22T08:50:17.251Z,4.70
2022-11-22T08:52:44.318Z,4.60
2022-11-22T08:55:11.280Z,4.60
2022-11-22T08:57:38.250Z,4.50
2022-11-22T09:00:06.409Z,4.60
2022-11-22T09:02:33.383Z,4.50
2022-11-22T09:05:00.274Z,4.40
2022-11-22T09:10:15.141Z,4.50
2022-11-22T09:12:45.980Z,4.70
2022-11-22T09:15:13.093Z,4.80
2022-11-22T09:17:39.977Z,4.90
2022-11-22T09:20:07.256Z,5.10
2022-11-22T09:22:34.389Z,5.20
2022-11-22T09:25:01.812Z,5.20
2022-11-22T09:27:28.904Z,5.30
2022-11-22T09:29:55.733Z,5.10
2022-11-22T09:32:22.705Z,5.10
2022-11-22T09:34:49.636Z,4.70
2022-11-22T09:37:18.739Z,4.50
2022-11-22T09:39:48.408Z,4.40
2022-11-22T09:42:27.911Z,4.40
2022-11-22T09:45:12.948Z,4.10
2022-11-22T09:47:46.182Z,3.90
2022-11-22T09:50:29.734Z,3.80
2022-11-22T09:53:04.905Z,3.70
2022-11-22T09:55:38.391Z,3.60
2022-11-22T09:58:10.750Z,3.80
2022-11-22T10:00:37.874Z,3.80
2022-11-22T10:03:20.278Z,4.00
2022-11-22T10:05:52.062Z,4.20
2022-11-22T10:08:25.274Z,4.20
2022-11-22T10:10:53.841Z,4.20
2022-11-22T10:13:25.618Z,3.80
2022-11-22T10:16:03.455Z,3.70
2022-11-22T10:18:36.497Z,3.90
2022-11-22T10:21:03.763Z,3.80
2022-11-22T10:23:32.938Z,4.00
2022-11-22T10:26:03.508Z,4.30
2022-11-22T10:28:34.880Z,4.60
2022-11-22T10:31:17.221Z,4.60
2022-11-22T10:33:47.098Z,4.80
2022-11-22T10:36:14.052Z,4.70
2022-11-22T10:38:53.471Z,4.70
2022-11-22T10:41:27.267Z,4.80
2022-11-22T10:43:57.187Z,4.90
2022-11-22T10:46:37.138Z,4.80
2022-11-22T10:49:24.312Z,4.80
2022-11-22T10:51:55.449Z,5.20
2022-11-22T10:54:26.300Z,5.60
2022-11-22T10:56:56.582Z,5.80
2022-11-22T10:59:28.609Z,5.90
2022-11-22T11:01:59.690Z,6.10
2022-11-22T11:04:34.683Z,6.20
2022-11-22T11:07:12.104Z,6.30
2022-11-22T11:12:43.230Z,6.50
2022-11-22T11:15:20.527Z,6.50
2022-11-22T11:17:51.177Z,6.60
2022-11-22T11:20:28.892Z,6.60
2022-11-22T11:25:44.078Z,6.70
2022-11-22T11:28:20.319Z,6.80
2022-11-22T11:30:47.193Z,6.70
2022-11-22T11:33:18.812Z,6.70
2022-11-22T11:35:49.287Z,6.70
2022-11-22T11:38:28.397Z,6.80
2022-11-22T11:40:55.570Z,6.80
2022-11-22T11:43:23.439Z,6.70
2022-11-22T11:45:50.585Z,6.60
2022-11-22T11:48:41.360Z,6.70
2022-11-22T11:51:17.534Z,6.80
2022-11-22T11:53:56.380Z,6.90
2022-11-22T11:56:29.326Z,7.00
2022-11-22T11:58:57.482Z,7.00
2022-11-22T12:01:25.187Z,7.10
2022-11-22T12:04:12.392Z,7.10
2022-11-22T12:06:39.423Z,7.00
2022-11-22T12:09:13.078Z,7.00
2022-11-22T12:11:45.311Z,7.00
2022-11-22T12:14:20.904Z,7.00
2022-11-22T12:17:04.302Z,6.80
2022-11-22T12:19:45.175Z,6.40
2022-11-22T12:22:42.678Z,6.20
2022-11-22T12:25:34.757Z,6.00
2022-11-22T12:28:09.014Z,5.80
2022-11-22T12:30:37.213Z,5.60
2022-11-22T12:33:06.929Z,5.50
2022-11-22T12:35:40.523Z,5.70
2022-11-22T12:38:16.526Z,5.80
2022-11-22T12:40:45.861Z,5.90
2022-11-22T12:43:31.790Z,6.00
2022-11-22T12:46:01.421Z,6.10
2022-11-22T12:48:28.528Z,6.20
2022-11-22T12:51:02.463Z,6.40
2022-11-22T12:53:30.981Z,6.40
2022-11-22T12:56:06.928Z,6.40
2022-11-22T12:58:38.142Z,6.50
2022-11-22T13:01:20.816Z,6.60
2022-11-22T13:03:55.707Z,6.70
2022-11-22T13:06:24.186Z,6.60
2022-11-22T13:09:07.131Z,6.40
2022-11-22T13:11:45.231Z,6.40
2022-11-22T13:14:21.030Z,6.10
2022-11-22T13:16:49.567Z,5.90
2022-11-22T13:19:20.396Z,5.70
2022-11-22T13:22:10.645Z,5.60
2022-11-22T13:24:40.582Z,5.60
2022-11-22T13:27:20.658Z,5.50
2022-11-22T13:29:48.123Z,5.50
2022-11-22T13:32:20.597Z,5.40
2022-11-22T13:35:06.906Z,5.30
2022-11-22T13:37:38.472Z,5.30
2022-11-22T13:40:10.912Z,5.50
2022-11-22T13:42:37.914Z,5.70
2022-11-22T13:45:19.234Z,5.90
2022-11-22T13:47:46.270Z,6.00
2022-11-22T13:50:32.158Z,6.00
2022-11-22T13:53:15.743Z,6.00
2022-11-22T13:55:42.857Z,6.00
2022-11-22T13:58:25.170Z,6.20
2022-11-22T14:00:56.055Z,6.00
2022-11-22T14:03:32.462Z,5.50
2022-11-22T14:05:59.740Z,5.20
2022-11-22T14:08:35.014Z,5.30
2022-11-22T14:11:01.897Z,5.40
2022-11-22T14:13:31.803Z,5.60
2022-11-22T14:16:04.940Z,5.80
2022-11-22T14:18:35.037Z,5.80
2022-11-22T14:21:07.251Z,5.80
2022-11-22T14:23:40.997Z,5.80
2022-11-22T14:26:21.828Z,5.50
2022-11-22T14:28:54.911Z,5.20
2022-11-22T14:31:24.535Z,4.80
2022-11-22T14:34:10.321Z,4.50
2022-11-22T14:36:37.295Z,4.30
2022-11-22T14:39:27.016Z,4.10
2022-11-22T14:41:56.270Z,3.90
2022-11-22T14:44:28.626Z,3.80
2022-11-22T14:46:58.449Z,3.70
2022-11-22T14:49:28.643Z,3.60
2022-11-22T14:51:56.163Z,3.60
2022-11-22T14:54:25.185Z,3.60
2022-11-22T14:56:53.621Z,3.60
2022-11-22T14:59:38.428Z,3.50
2022-11-22T15:02:26.795Z,3.50
2022-11-22T15:09:14.150Z,3.40
2022-11-22T15:09:19.188Z,3.30
2022-11-22T15:11:07.187Z,3.20
2022-11-22T15:14:01.509Z,3.10
2022-11-22T15:59:24.232Z,3.50
2022-11-22T16:01:53.208Z,3.30
2022-11-22T16:04:25.723Z,3.20
2022-11-22T16:06:53.043Z,3.20
2022-11-22T16:09:37.399Z,3.20
2022-11-22T16:12:24.337Z,3.30
2022-11-22T16:14:51.565Z,3.20
2022-11-22T16:17:36.659Z,2.90
2022-11-22T16:20:22.002Z,2.90
2022-11-22T16:23:07.824Z,2.90
2022-11-22T16:25:35.537Z,3.10
2022-11-22T16:28:21.198Z,3.20
2022-11-22T16:30:48.190Z,3.30
2022-11-22T16:33:15.106Z,3.30
2022-11-22T16:35:42.142Z,3.30
2022-11-22T16:38:10.202Z,3.40
2022-11-22T16:40:40.748Z,3.40
2022-11-22T16:43:14.364Z,3.30
2022-11-22T16:45:41.324Z,3.10
2022-11-22T16:48:30.948Z,2.90
2022-11-22T16:51:01.727Z,2.80
2022-11-22T16:53:34.287Z,2.60
2022-11-22T16:56:01.162Z,2.60
2022-11-22T16:58:28.575Z,2.50
2022-11-22T17:00:56.030Z,2.40
2022-11-22T17:03:25.249Z,2.00
2022-11-22T17:05:52.327Z,2.00
2022-11-22T17:08:19.859Z,1.90
2022-11-22T17:10:51.065Z,1.90
2022-11-22T17:13:23.047Z,1.80
2022-11-22T17:15:50.098Z,1.70
2022-11-22T17:18:17.179Z,1.50
2022-11-22T17:20:44.325Z,1.50
2022-11-22T17:23:23.037Z,1.30
2022-11-22T17:25:50.240Z,1.40
2022-11-22T17:28:17.242Z,1.60
2022-11-22T17:30:44.242Z,1.70
2022-11-22T17:33:11.365Z,1.90
2022-11-22T17:35:38.879Z,2.10
2022-11-22T17:38:06.338Z,2.20
2022-11-22T17:40:33.380Z,2.40
2022-11-22T17:43:01.679Z,2.40
2022-11-22T17:45:28.910Z,2.50
2022-11-22T17:47:55.970Z,2.60
2022-11-22T17:50:22.997Z,2.60
2022-11-22T17:52:51.679Z,2.60
2022-11-22T17:55:22.003Z,2.60
2022-11-22T17:57:53.106Z,2.60
2022-11-22T18:00:28.472Z,2.70
2022-11-22T18:02:57.534Z,2.70
2022-11-22T18:05:25.043Z,2.60
2022-11-22T18:07:53.019Z,2.40
2022-11-22T18:10:20.139Z,2.20
2022-11-22T18:13:13.584Z,2.10
2022-11-22T18:15:34.615Z,1.90
2022-11-22T18:18:01.442Z,1.90
2022-11-22T18:20:28.388Z,1.90
2022-11-22T18:22:55.461Z,1.80
2022-11-22T18:25:22.413Z,1.80
2022-11-22T18:27:49.368Z,1.80
2022-11-22T18:30:16.562Z,1.80
2022-11-22T18:32:43.615Z,1.80
2022-11-22T18:35:10.777Z,1.80
2022-11-22T18:37:37.896Z,1.90
2022-11-22T18:40:05.170Z,2.00
2022-11-22T18:42:32.440Z,2.20
2022-11-22T18:44:59.426Z,2.30
2022-11-22T18:47:26.423Z,2.40
2022-11-22T18:49:53.352Z,2.40
2022-11-22T18:52:23.066Z,2.60
2022-11-22T18:54:50.073Z,2.80
2022-11-22T18:57:17.107Z,2.80
2022-11-22T18:59:44.086Z,2.80
2022-11-22T19:02:11.160Z,2.80
2022-11-22T19:04:38.071Z,2.90
2022-11-22T19:07:05.908Z,2.90
2022-11-22T19:09:32.803Z,3.10
2022-11-22T19:11:59.802Z,3.30
2022-11-22T19:14:29.197Z,3.40
2022-11-22T19:16:56.433Z,3.50
2022-11-22T19:19:24.470Z,3.60
2022-11-22T19:21:51.398Z,3.60
2022-11-22T19:24:18.302Z,3.60
2022-11-22T19:26:45.256Z,3.60
2022-11-22T19:29:12.324Z,3.20
2022-11-22T19:31:39.222Z,2.90
2022-11-22T19:34:06.301Z,2.70
2022-11-22T19:36:34.517Z,2.60
2022-11-22T19:39:03.563Z,2.40
2022-11-22T19:41:31.214Z,2.40
2022-11-22T19:43:58.503Z,2.40
2022-11-22T19:46:25.868Z,2.40
2022-11-22T19:48:53.499Z,2.60
2022-11-22T19:51:20.995Z,2.80
2022-11-22T19:53:48.174Z,2.70
2022-11-22T19:56:16.071Z,2.50
2022-11-22T19:58:43.542Z,2.40
2022-11-22T20:01:11.694Z,2.10
2022-11-22T20:03:39.690Z,2.10
2022-11-22T20:06:07.428Z,2.00
2022-11-22T20:08:34.886Z,1.90
2022-11-22T20:11:06.257Z,1.80
2022-11-22T20:13:37.657Z,1.70
2022-11-22T20:16:31.213Z,1.90
2022-11-22T20:18:59.775Z,2.00
2022-11-22T20:21:29.655Z,2.30
2022-11-22T20:23:57.012Z,2.40
2022-11-22T20:26:24.662Z,2.40
2022-11-22T20:28:58.873Z,2.40
2022-11-22T20:31:26.330Z,2.30
2022-11-22T20:33:54.104Z,2.10
2022-11-22T20:36:22.690Z,1.90
2022-11-22T20:38:50.530Z,1.80
2022-11-22T20:41:18.624Z,1.80
2022-11-22T20:43:45.766Z,1.70
2022-11-22T20:46:13.908Z,1.70
2022-11-22T20:48:41.819Z,2.00
2022-11-22T20:51:09.728Z,2.20
2022-11-22T20:53:36.984Z,2.60
2022-11-22T20:56:04.672Z,2.80
2022-11-22T20:58:32.185Z,2.90
2022-11-22T21:00:59.531Z,2.90
2022-11-22T21:03:27.320Z,2.90
2022-11-22T21:05:54.832Z,2.70
2022-11-22T21:08:22.564Z,2.50
2022-11-22T21:10:49.642Z,2.40
2022-11-22T21:13:16.947Z,2.30
2022-11-22T21:15:43.969Z,2.30
2022-11-22T21:18:25.371Z,2.30
2022-11-22T21:20:52.678Z,2.30
2022-11-22T21:23:19.643Z,2.40
2022-11-22T21:25:46.712Z,2.40
2022-11-22T21:28:14.096Z,2.40
2022-11-22T21:30:41.099Z,2.50
2022-11-22T21:33:08.096Z,2.70
2022-11-22T21:35:35.090Z,2.80
2022-11-22T21:38:02.077Z,2.90
2022-11-22T21:40:28.960Z,3.00
2022-11-22T21:42:55.899Z,3.10
2022-11-22T21:45:22.789Z,3.20
2022-11-22T21:47:50.715Z,3.30
2022-11-22T21:50:17.663Z,3.40
2022-11-22T21:52:44.537Z,3.50
2022-11-22T21:55:12.200Z,3.50
2022-11-22T21:57:39.106Z,3.60
2022-11-22T22:00:06.381Z,3.60
2022-11-22T22:02:33.301Z,3.50
2022-11-22T22:05:00.281Z,3.50
2022-11-22T22:07:51.564Z,3.50
2022-11-22T22:10:14.988Z,3.40
2022-11-22T22:12:42.151Z,3.40
2022-11-22T22:15:10.496Z,3.30
2022-11-22T22:17:37.416Z,3.20
2022-11-22T22:20:04.827Z,3.20
2022-11-22T22:22:31.731Z,3.20
2022-11-22T22:24:58.636Z,3.20
2022-11-22T22:27:25.521Z,3.20
2022-11-22T22:29:52.426Z,3.20
2022-11-22T22:32:19.298Z,3.30
2022-11-22T22:34:46.200Z,3.30
2022-11-22T22:37:13.089Z,3.40
2022-11-22T22:39:39.982Z,3.50
2022-11-22T22:42:06.889Z,3.40
2022-11-22T22:44:33.855Z,3.40
2022-11-22T22:47:00.694Z,3.40
2022-11-22T22:49:28.338Z,3.40
2022-11-22T22:51:55.525Z,3.40
2022-11-22T22:54:22.479Z,3.40
2022-11-22T22:56:49.547Z,3.30
2022-11-22T22:59:16.485Z,3.30
2022-11-22T23:01:43.428Z,3.30
2022-11-22T23:04:10.741Z,3.40
2022-11-22T23:06:38.461Z,3.50
2022-11-22T23:09:06.566Z,3.60
2022-11-22T23:11:52.206Z,3.80
2022-11-22T23:14:20.995Z,3.80
2022-11-22T23:16:48.964Z,3.80
2022-11-22T23:19:18.019Z,3.90
2022-11-22T23:21:45.040Z,3.90
2022-11-22T23:24:11.950Z,3.90
2022-11-22T23:26:38.889Z,4.00
2022-11-22T23:29:05.972Z,4.00
2022-11-22T23:31:33.149Z,4.10
2022-11-22T23:34:01.084Z,4.10
2022-11-22T23:36:28.357Z,4.10
2022-11-22T23:38:55.286Z,4.10
2022-11-22T23:41:23.046Z,4.00
2022-11-22T23:43:54.076Z,3.90
2022-11-22T23:46:21.571Z,3.90
2022-11-22T23:48:52.746Z,3.90
2022-11-22T23:51:20.265Z,3.90
2022-11-22T23:53:47.300Z,3.80
2022-11-22T23:56:20.288Z,3.70
2022-11-22T23:58:49.077Z,3.70
